Pomona, California
Current Conditions -  °F | °C
As of 2:53 PM on Monday 20 Oct 2014 (Local Time) from KONT Reporting Station
Scattered Clouds Scattered Clouds  
Wind Chill: 79°   Ceiling: Unl
Heat Index: 80°   Visibility: 10mi
Dew Point: 58°   Wind: 5mph
Humidity: 48%   Direction: NA
Pressure: 29.88"   Gusts: NA
Location:  34.05°N, 117.75°W
Report Text: KONT 202153Z VRB04KT 10SM FEW085 SCT250 26/14 A2988 RMK AO2 SLP105 T02610144
Loading
Personal Weather Stations






























Interactive Weather Map New forecast layout! Learn more

10-Day Weather Forecast

Advertisements
Track Severe Weather on mobile